Terminal Aerodrome Forecast
Issued by NWS Sterling, VA

Current Version | Previous Version | Graphics & Text | Print | Product List | Glossary On
Versions: 1 2 3 4 5 6 7 8 9 10 11 12 13 14 15 16 17 18 19 20 21 22 23 24 25
039
FTUS41 KLWX 290541
TAFDCA
TAF
KDCA 290541Z 2906/3006 06005KT P6SM OVC009
     FM290900 VRB03KT 3SM -RADZ BR OVC008
     FM291500 07005KT 5SM -DZ OVC010
     FM291700 06005KT P6SM OVC015
     FM291900 07005KT P6SM OVC025
     FM292300 08005KT P6SM OVC015
     FM300400 06005KT 4SM -DZ BR OVC008=

USA.gov is the U.S. government's official web portal to all federal, state and local government web resources and services.